createdAt,value
2022-11-26T00:01:19.322Z,98993.00
2022-11-26T00:03:56.867Z,98994.00
2022-11-26T00:06:42.999Z,98998.00
2022-11-26T00:09:22.021Z,98998.00
2022-11-26T00:11:56.957Z,99004.00
2022-11-26T00:14:31.853Z,98995.00
2022-11-26T00:17:06.743Z,98996.00
2022-11-26T00:19:43.365Z,99008.00
2022-11-26T00:22:30.460Z,99011.00
2022-11-26T00:25:06.031Z,99017.00
2022-11-26T00:27:40.962Z,99012.00
2022-11-26T00:30:20.314Z,99011.00
2022-11-26T00:32:56.175Z,99021.00
2022-11-26T00:35:31.067Z,99027.00
2022-11-26T00:38:06.064Z,99028.00
2022-11-26T00:40:41.345Z,99020.00
2022-11-26T00:43:18.104Z,99027.00
2022-11-26T00:45:53.035Z,99028.00
2022-11-26T00:48:28.042Z,99047.00
2022-11-26T00:51:02.946Z,99032.00
2022-11-26T00:53:37.864Z,99048.00
2022-11-26T00:56:19.994Z,99047.00
2022-11-26T00:58:55.238Z,99049.00
2022-11-26T01:01:30.282Z,99058.00
2022-11-26T01:04:05.239Z,99060.00
2022-11-26T01:06:44.270Z,99056.00
2022-11-26T01:09:21.528Z,99067.00
2022-11-26T01:11:56.442Z,99066.00
2022-11-26T01:14:31.308Z,99075.00
2022-11-26T01:17:10.432Z,99080.00
2022-11-26T01:19:45.317Z,99085.00
2022-11-26T01:22:23.091Z,99084.00
2022-11-26T01:24:57.958Z,99091.00
2022-11-26T01:27:32.965Z,99098.00
2022-11-26T01:30:25.174Z,99100.00
2022-11-26T01:33:01.086Z,99098.00
2022-11-26T01:35:36.839Z,99092.00
2022-11-26T01:38:15.678Z,99098.00
2022-11-26T01:41:28.568Z,99097.00
2022-11-26T01:44:06.436Z,99119.00
2022-11-26T01:46:41.679Z,99118.00
2022-11-26T01:49:19.006Z,99122.00
2022-11-26T01:52:23.941Z,99119.00
2022-11-26T01:54:59.027Z,99124.00
2022-11-26T01:57:38.498Z,99122.00
2022-11-26T02:00:14.294Z,99134.00
2022-11-26T02:02:49.553Z,99124.00
2022-11-26T02:05:28.651Z,99123.00
2022-11-26T02:08:03.820Z,99116.00
2022-11-26T02:10:38.822Z,99123.00
2022-11-26T02:13:13.841Z,99124.00
2022-11-26T02:16:22.003Z,99127.00
2022-11-26T02:19:36.650Z,99135.00
2022-11-26T02:22:26.385Z,99135.00
2022-11-26T02:25:38.446Z,99144.00
2022-11-26T02:28:38.174Z,99149.00
2022-11-26T02:31:44.653Z,99147.00
2022-11-26T02:34:22.623Z,99143.00
2022-11-26T02:37:02.311Z,99154.00
2022-11-26T02:39:37.158Z,99151.00
2022-11-26T02:42:27.137Z,99163.00
2022-11-26T02:45:17.350Z,99167.00
2022-11-26T02:47:58.665Z,99173.00
2022-11-26T02:50:58.347Z,99178.00
2022-11-26T02:53:35.081Z,99183.00
2022-11-26T02:56:16.282Z,99187.00
2022-11-26T02:58:53.519Z,99188.00
2022-11-26T03:02:02.208Z,99202.00
2022-11-26T03:04:47.226Z,99194.00
2022-11-26T03:07:22.879Z,99203.00
2022-11-26T03:10:01.149Z,99202.00
2022-11-26T03:12:35.981Z,99196.00
2022-11-26T03:15:11.483Z,99205.00
2022-11-26T03:17:46.403Z,99211.00
2022-11-26T03:20:21.286Z,99211.00
2022-11-26T03:22:56.108Z,99213.00
2022-11-26T03:25:31.095Z,99216.00
2022-11-26T03:28:06.410Z,99228.00
2022-11-26T03:30:41.278Z,99221.00
2022-11-26T03:33:16.141Z,99210.00
2022-11-26T03:35:50.993Z,99217.00
2022-11-26T03:38:25.849Z,99216.00
2022-11-26T03:41:05.149Z,99215.00
2022-11-26T03:43:39.973Z,99209.00
2022-11-26T03:46:15.207Z,99224.00
2022-11-26T03:48:50.062Z,99227.00
2022-11-26T03:51:24.872Z,99218.00
2022-11-26T03:53:59.755Z,99227.00
2022-11-26T03:56:34.726Z,99225.00
2022-11-26T03:59:09.532Z,99231.00
2022-11-26T04:01:44.635Z,99225.00
2022-11-26T04:04:19.479Z,99222.00
2022-11-26T04:06:54.315Z,99234.00
2022-11-26T04:09:29.153Z,99221.00
2022-11-26T04:12:04.451Z,99226.00
2022-11-26T04:14:39.447Z,99233.00
2022-11-26T04:17:14.536Z,99234.00
2022-11-26T04:19:49.434Z,99239.00
2022-11-26T04:22:24.319Z,99236.00
2022-11-26T04:24:59.207Z,99235.00
2022-11-26T04:27:34.540Z,99235.00
2022-11-26T04:30:10.099Z,99224.00
2022-11-26T04:32:44.970Z,99227.00
2022-11-26T04:35:19.970Z,99231.00
2022-11-26T04:37:54.809Z,99223.00
2022-11-26T04:40:29.733Z,99231.00
2022-11-26T04:43:05.302Z,99241.00
2022-11-26T04:45:40.298Z,99242.00
2022-11-26T04:48:15.264Z,99247.00
2022-11-26T04:50:50.567Z,99244.00
2022-11-26T04:53:25.484Z,99238.00
2022-11-26T04:56:00.541Z,99240.00
2022-11-26T04:58:35.941Z,99244.00
2022-11-26T05:01:10.955Z,99244.00
2022-11-26T05:03:45.889Z,99248.00
2022-11-26T05:06:21.841Z,99237.00
2022-11-26T05:08:56.790Z,99240.00
2022-11-26T05:11:31.717Z,99251.00
2022-11-26T05:14:06.549Z,99244.00
2022-11-26T05:16:41.476Z,99257.00
2022-11-26T05:19:16.605Z,99260.00
2022-11-26T05:21:51.498Z,99264.00
2022-11-26T05:24:26.378Z,99262.00
2022-11-26T05:27:01.219Z,99267.00
2022-11-26T05:29:36.037Z,99258.00
2022-11-26T05:32:10.933Z,99266.00
2022-11-26T05:34:45.891Z,99264.00
2022-11-26T05:37:20.727Z,99278.00
2022-11-26T05:39:55.567Z,99276.00
2022-11-26T05:42:30.487Z,99270.00
2022-11-26T05:45:06.121Z,99274.00
2022-11-26T05:47:40.997Z,99271.00
2022-11-26T05:50:15.842Z,99287.00
2022-11-26T05:52:50.832Z,99288.00
2022-11-26T05:55:25.905Z,99300.00
2022-11-26T05:58:00.781Z,99299.00
2022-11-26T06:00:35.609Z,99295.00
2022-11-26T06:03:11.448Z,99296.00
2022-11-26T06:05:46.451Z,99298.00
2022-11-26T06:08:21.288Z,99304.00
2022-11-26T06:10:56.124Z,99310.00
2022-11-26T06:13:31.066Z,99314.00
2022-11-26T06:16:06.639Z,99318.00
2022-11-26T06:18:41.531Z,99315.00
2022-11-26T06:21:16.630Z,99310.00
2022-11-26T06:23:57.603Z,99317.00
2022-11-26T06:26:33.878Z,99306.00
2022-11-26T06:29:08.757Z,99308.00
2022-11-26T06:31:43.777Z,99312.00
2022-11-26T06:34:18.632Z,99313.00
2022-11-26T06:36:53.510Z,99312.00
2022-11-26T06:39:28.458Z,99315.00
2022-11-26T06:42:03.346Z,99323.00
2022-11-26T06:44:38.373Z,99324.00
2022-11-26T06:47:13.973Z,99337.00
2022-11-26T06:49:48.849Z,99345.00
2022-11-26T06:52:23.792Z,99347.00
2022-11-26T06:54:58.607Z,99352.00
2022-11-26T06:57:33.438Z,99345.00
2022-11-26T07:00:09.194Z,99355.00
2022-11-26T07:02:44.233Z,99356.00
2022-11-26T07:05:19.149Z,99359.00
2022-11-26T07:07:54.039Z,99366.00
2022-11-26T07:10:29.191Z,99369.00
2022-11-26T07:13:04.151Z,99376.00
2022-11-26T07:15:39.017Z,99382.00
2022-11-26T07:18:13.869Z,99382.00
2022-11-26T07:20:48.765Z,99385.00
2022-11-26T07:23:23.803Z,99394.00
2022-11-26T07:26:00.112Z,99393.00
2022-11-26T07:28:35.993Z,99397.00
2022-11-26T07:31:16.808Z,99413.00
2022-11-26T07:33:52.233Z,99411.00
2022-11-26T07:36:30.291Z,99420.00
2022-11-26T07:39:05.206Z,99429.00
2022-11-26T07:41:40.087Z,99424.00
2022-11-26T07:44:15.071Z,99429.00
2022-11-26T07:46:49.984Z,99426.00
2022-11-26T07:49:24.845Z,99432.00
2022-11-26T07:51:59.674Z,99432.00
2022-11-26T07:54:34.496Z,99444.00
2022-11-26T07:57:10.418Z,99442.00
2022-11-26T07:59:45.219Z,99447.00
2022-11-26T08:02:20.124Z,99453.00
2022-11-26T08:04:54.962Z,99446.00
2022-11-26T08:07:29.848Z,99447.00
2022-11-26T08:10:05.810Z,99455.00
2022-11-26T08:12:40.644Z,99454.00
2022-11-26T08:15:16.166Z,99460.00
2022-11-26T08:17:57.909Z,99459.00
2022-11-26T08:20:32.753Z,99468.00
2022-11-26T08:23:07.577Z,99452.00
2022-11-26T08:26:06.167Z,99461.00
2022-11-26T08:28:37.332Z,99455.00
2022-11-26T08:31:15.944Z,99462.00
2022-11-26T08:33:50.985Z,99467.00
2022-11-26T08:36:27.443Z,99472.00
2022-11-26T08:39:02.348Z,99473.00
2022-11-26T08:41:37.164Z,99470.00
2022-11-26T08:44:12.022Z,99481.00
2022-11-26T08:46:46.878Z,99478.00
2022-11-26T08:49:21.722Z,99478.00
2022-11-26T08:51:56.965Z,99484.00
2022-11-26T08:54:31.811Z,99479.00
2022-11-26T08:57:06.666Z,99479.00
2022-11-26T08:59:41.499Z,99477.00
2022-11-26T09:02:18.886Z,99478.00
2022-11-26T09:04:53.929Z,99484.00
2022-11-26T09:07:28.826Z,99479.00
2022-11-26T09:10:04.442Z,99485.00
2022-11-26T09:12:39.292Z,99475.00
2022-11-26T09:15:14.240Z,99468.00
2022-11-26T09:17:49.115Z,99465.00
2022-11-26T09:20:24.057Z,99469.00
2022-11-26T09:22:59.344Z,99467.00
2022-11-26T09:25:34.168Z,99464.00
2022-11-26T09:28:09.019Z,99458.00
2022-11-26T09:30:43.866Z,99459.00
2022-11-26T09:33:18.705Z,99466.00
2022-11-26T09:35:53.540Z,99472.00
2022-11-26T09:38:28.369Z,99474.00
2022-11-26T09:41:43.308Z,99474.00
2022-11-26T09:44:26.054Z,99478.00
2022-11-26T09:47:19.057Z,99486.00
2022-11-26T09:50:14.782Z,99492.00
2022-11-26T09:52:53.895Z,99490.00
2022-11-26T09:55:36.401Z,99481.00
2022-11-26T09:58:49.465Z,99477.00
2022-11-26T10:01:24.876Z,99486.00
2022-11-26T10:04:00.384Z,99481.00
2022-11-26T10:06:56.227Z,99476.00
2022-11-26T10:10:09.450Z,99472.00
2022-11-26T10:13:47.944Z,99477.00
2022-11-26T10:16:51.426Z,99468.00
2022-11-26T10:19:59.193Z,99468.00
2022-11-26T10:22:59.236Z,99479.00
2022-11-26T10:25:46.354Z,99475.00
2022-11-26T10:28:43.803Z,99474.00
2022-11-26T10:31:27.272Z,99469.00
2022-11-26T10:34:17.152Z,99472.00
2022-11-26T10:36:52.166Z,99474.00
2022-11-26T10:39:28.342Z,99473.00
2022-11-26T10:42:22.710Z,99472.00
2022-11-26T10:45:17.618Z,99475.00
2022-11-26T10:47:52.804Z,99475.00
2022-11-26T10:53:25.835Z,99467.00
2022-11-26T10:56:05.746Z,99475.00
2022-11-26T10:58:43.081Z,99468.00
2022-11-26T11:01:18.277Z,99468.00
2022-11-26T11:04:13.866Z,99460.00
2022-11-26T11:06:48.731Z,99452.00
2022-11-26T11:09:35.764Z,99444.00
2022-11-26T11:12:25.822Z,99438.00
2022-11-26T11:15:27.812Z,99450.00
2022-11-26T11:18:13.347Z,99452.00
2022-11-26T11:20:57.831Z,99444.00
2022-11-26T11:24:07.243Z,99440.00
2022-11-26T11:26:44.665Z,99452.00
2022-11-26T11:29:36.797Z,99446.00
2022-11-26T11:32:40.751Z,99444.00
2022-11-26T11:35:30.229Z,99445.00
2022-11-26T11:38:05.126Z,99433.00
2022-11-26T11:40:42.160Z,99439.00
2022-11-26T11:43:19.864Z,99434.00
2022-11-26T11:46:21.997Z,99435.00
2022-11-26T11:49:30.616Z,99432.00
2022-11-26T11:52:53.471Z,99427.00
2022-11-26T11:55:45.507Z,99431.00
2022-11-26T11:58:41.787Z,99434.00
2022-11-26T12:01:58.009Z,99429.00
2022-11-26T12:05:01.540Z,99431.00
2022-11-26T12:07:44.601Z,99433.00
2022-11-26T12:10:46.857Z,99419.00
2022-11-26T12:13:23.601Z,99421.00
2022-11-26T12:16:05.669Z,99418.00
2022-11-26T12:19:12.548Z,99420.00
2022-11-26T12:21:55.160Z,99424.00
2022-11-26T12:24:55.488Z,99419.00
2022-11-26T12:27:43.650Z,99409.00
2022-11-26T12:30:26.483Z,99421.00
2022-11-26T12:33:13.416Z,99421.00
2022-11-26T12:35:59.560Z,99418.00
2022-11-26T12:38:45.373Z,99423.00
2022-11-26T12:41:47.554Z,99424.00
2022-11-26T12:44:38.254Z,99422.00
2022-11-26T12:47:42.332Z,99412.00
2022-11-26T12:50:38.275Z,99410.00
2022-11-26T12:53:45.257Z,99412.00
2022-11-26T12:56:41.581Z,99417.00
2022-11-26T12:59:44.201Z,99411.00
2022-11-26T13:02:25.167Z,99408.00
2022-11-26T13:05:00.494Z,99413.00
2022-11-26T13:07:56.691Z,99414.00
2022-11-26T13:10:57.423Z,99403.00
2022-11-26T13:13:44.209Z,99407.00
2022-11-26T13:17:12.878Z,99405.00
2022-11-26T13:19:58.805Z,99405.00
2022-11-26T13:23:20.853Z,99397.00
2022-11-26T13:26:03.503Z,99408.00
2022-11-26T13:28:48.253Z,99396.00
2022-11-26T13:31:58.284Z,99403.00
2022-11-26T13:34:59.496Z,99400.00
2022-11-26T13:37:58.234Z,99400.00
2022-11-26T13:41:02.479Z,99406.00
2022-11-26T13:44:11.228Z,99396.00
2022-11-26T13:47:06.229Z,99387.00
2022-11-26T13:49:50.359Z,99390.00
2022-11-26T13:52:49.313Z,99385.00
2022-11-26T13:55:47.299Z,99395.00
2022-11-26T13:58:52.808Z,99391.00
2022-11-26T14:01:37.215Z,99398.00
2022-11-26T14:04:22.766Z,99404.00
2022-11-26T14:07:06.604Z,99393.00
2022-11-26T14:09:47.094Z,99401.00
2022-11-26T14:12:24.753Z,99398.00
2022-11-26T14:14:59.589Z,99393.00
2022-11-26T14:17:57.265Z,99398.00
2022-11-26T14:20:32.096Z,99394.00
2022-11-26T14:23:50.641Z,99407.00
2022-11-26T14:26:37.208Z,99395.00
2022-11-26T14:29:17.546Z,99410.00
2022-11-26T14:31:54.890Z,99408.00
2022-11-26T14:34:52.000Z,99412.00
2022-11-26T14:37:29.984Z,99405.00
2022-11-26T14:40:23.205Z,99404.00
2022-11-26T14:43:22.726Z,99406.00
2022-11-26T14:46:14.961Z,99419.00
2022-11-26T14:48:50.483Z,99414.00
2022-11-26T14:51:27.458Z,99418.00
2022-11-26T14:54:02.387Z,99421.00
2022-11-26T14:56:40.898Z,99417.00
2022-11-26T14:59:19.081Z,99423.00
2022-11-26T15:01:54.017Z,99421.00
2022-11-26T15:04:38.969Z,99418.00
2022-11-26T15:07:28.289Z,99411.00
2022-11-26T15:10:17.824Z,99421.00
2022-11-26T15:12:53.529Z,99423.00
2022-11-26T15:15:28.458Z,99433.00
2022-11-26T15:18:05.966Z,99435.00
2022-11-26T15:20:41.477Z,99423.00
2022-11-26T15:23:18.874Z,99423.00
2022-11-26T15:25:55.035Z,99425.00
2022-11-26T15:28:37.736Z,99423.00
2022-11-26T15:31:12.624Z,99425.00
2022-11-26T15:33:47.955Z,99419.00
2022-11-26T15:36:22.955Z,99425.00
2022-11-26T15:39:06.497Z,99417.00
2022-11-26T15:41:42.775Z,99411.00
2022-11-26T15:44:25.507Z,99409.00
2022-11-26T15:47:01.204Z,99401.00
2022-11-26T15:49:40.185Z,99405.00
2022-11-26T15:52:15.979Z,99406.00
2022-11-26T15:55:12.474Z,99403.00
2022-11-26T15:57:51.601Z,99409.00
2022-11-26T16:00:39.834Z,99415.00
2022-11-26T16:03:47.123Z,99414.00
2022-11-26T16:06:32.233Z,99411.00
2022-11-26T16:09:12.518Z,99407.00
2022-11-26T16:12:00.996Z,99400.00
2022-11-26T16:14:38.920Z,99393.00
2022-11-26T16:17:17.395Z,99393.00
2022-11-26T16:19:57.230Z,99400.00
2022-11-26T16:22:33.563Z,99396.00
2022-11-26T16:25:31.209Z,99395.00
2022-11-26T16:28:10.422Z,99390.00
2022-11-26T16:30:45.297Z,99393.00
2022-11-26T16:33:20.263Z,99393.00
2022-11-26T16:35:55.627Z,99401.00
2022-11-26T16:38:30.527Z,99402.00
2022-11-26T16:41:05.546Z,99409.00
2022-11-26T16:43:40.448Z,99399.00
2022-11-26T16:46:27.662Z,99409.00
2022-11-26T16:49:02.879Z,99410.00
2022-11-26T16:51:37.704Z,99403.00
2022-11-26T16:54:15.729Z,99405.00
2022-11-26T16:56:53.311Z,99401.00
2022-11-26T16:59:30.913Z,99404.00
2022-11-26T17:02:19.058Z,99408.00
2022-11-26T17:04:54.094Z,99412.00
2022-11-26T17:07:40.227Z,99406.00
2022-11-26T17:10:25.375Z,99400.00
2022-11-26T17:13:00.225Z,99402.00
2022-11-26T17:15:35.304Z,99406.00
2022-11-26T17:18:19.535Z,99402.00
2022-11-26T17:20:54.468Z,99407.00
2022-11-26T17:23:29.317Z,99405.00
2022-11-26T17:26:16.785Z,99416.00
2022-11-26T17:28:51.799Z,99411.00
2022-11-26T17:31:26.708Z,99412.00
2022-11-26T17:34:01.672Z,99413.00
2022-11-26T17:36:37.146Z,99430.00
2022-11-26T17:39:12.113Z,99429.00
2022-11-26T17:41:46.934Z,99420.00
2022-11-26T17:44:22.176Z,99418.00
2022-11-26T17:49:53.699Z,99425.00
2022-11-26T17:52:28.513Z,99412.00
2022-11-26T17:55:03.530Z,99423.00
2022-11-26T17:57:38.737Z,99423.00
2022-11-26T18:00:19.864Z,99421.00
2022-11-26T18:02:55.660Z,99426.00
2022-11-26T18:05:30.523Z,99425.00
2022-11-26T18:08:05.651Z,99428.00
2022-11-26T18:10:41.167Z,99428.00
2022-11-26T18:13:15.993Z,99422.00
2022-11-26T18:15:59.417Z,99427.00
2022-11-26T18:18:34.318Z,99424.00
2022-11-26T18:21:09.154Z,99421.00
2022-11-26T18:23:47.998Z,99430.00
2022-11-26T18:26:22.868Z,99428.00
2022-11-26T18:28:58.378Z,99411.00
2022-11-26T18:31:39.296Z,99417.00
2022-11-26T18:34:14.640Z,99416.00
2022-11-26T18:36:53.650Z,99411.00
2022-11-26T18:39:28.930Z,99411.00
2022-11-26T18:42:35.323Z,99420.00
2022-11-26T18:44:59.183Z,99427.00
2022-11-26T18:47:34.145Z,99430.00
2022-11-26T18:50:10.480Z,99426.00
2022-11-26T18:52:45.390Z,99433.00
2022-11-26T18:55:20.311Z,99423.00
2022-11-26T18:57:55.256Z,99423.00
2022-11-26T19:00:30.155Z,99429.00
2022-11-26T19:03:05.933Z,99419.00
2022-11-26T19:05:45.609Z,99423.00
2022-11-26T19:08:21.600Z,99419.00
2022-11-26T19:10:56.430Z,99407.00
2022-11-26T19:13:31.731Z,99408.00
2022-11-26T19:16:16.499Z,99407.00
2022-11-26T19:18:52.605Z,99404.00
2022-11-26T19:21:31.023Z,99406.00
2022-11-26T19:24:09.154Z,99403.00
2022-11-26T19:26:44.007Z,99403.00
2022-11-26T19:29:18.980Z,99398.00
2022-11-26T19:31:53.871Z,99409.00
2022-11-26T19:34:28.806Z,99406.00
2022-11-26T19:37:03.709Z,99396.00
2022-11-26T19:39:39.081Z,99387.00
2022-11-26T19:42:14.238Z,99385.00
2022-11-26T19:44:49.362Z,99391.00
2022-11-26T19:47:24.304Z,99379.00
2022-11-26T19:49:59.232Z,99377.00
2022-11-26T19:52:34.710Z,99381.00
2022-11-26T19:55:10.191Z,99384.00
2022-11-26T19:57:45.049Z,99383.00
2022-11-26T20:00:20.176Z,99380.00
2022-11-26T20:02:55.084Z,99374.00
2022-11-26T20:05:29.982Z,99375.00
2022-11-26T20:08:05.196Z,99373.00
2022-11-26T20:10:40.176Z,99370.00
2022-11-26T20:13:15.040Z,99363.00
2022-11-26T20:15:49.865Z,99357.00
2022-11-26T20:18:24.738Z,99360.00
2022-11-26T20:21:04.231Z,99362.00
2022-11-26T20:23:40.001Z,99362.00
2022-11-26T20:26:29.475Z,99368.00
2022-11-26T20:29:11.931Z,99369.00
2022-11-26T20:31:50.213Z,99365.00
2022-11-26T20:34:26.524Z,99378.00
2022-11-26T20:37:03.160Z,99380.00
2022-11-26T20:39:38.213Z,99363.00
2022-11-26T20:42:15.286Z,99369.00
2022-11-26T20:44:50.241Z,99362.00
2022-11-26T20:47:25.145Z,99360.00
2022-11-26T20:49:59.980Z,99370.00
2022-11-26T20:52:34.960Z,99360.00
2022-11-26T20:55:10.045Z,99359.00
2022-11-26T20:57:52.074Z,99354.00
2022-11-26T21:00:27.767Z,99354.00
2022-11-26T21:03:02.806Z,99354.00
2022-11-26T21:05:37.885Z,99345.00
2022-11-26T21:08:13.459Z,99345.00
2022-11-26T21:10:49.507Z,99354.00
2022-11-26T21:13:24.341Z,99363.00
2022-11-26T21:16:03.330Z,99368.00
2022-11-26T21:18:38.453Z,99357.00
2022-11-26T21:21:16.677Z,99362.00
2022-11-26T21:23:51.721Z,99351.00
2022-11-26T21:26:27.100Z,99345.00
2022-11-26T21:29:02.472Z,99352.00
2022-11-26T21:31:38.186Z,99363.00
2022-11-26T21:34:14.533Z,99363.00
2022-11-26T21:36:49.378Z,99360.00
2022-11-26T21:39:24.317Z,99356.00
2022-11-26T21:41:59.173Z,99369.00
2022-11-26T21:44:34.100Z,99373.00
2022-11-26T21:47:09.051Z,99372.00
2022-11-26T21:49:43.908Z,99379.00
2022-11-26T21:52:18.740Z,99369.00
2022-11-26T21:54:53.757Z,99368.00
2022-11-26T21:57:32.146Z,99362.00
2022-11-26T22:00:08.439Z,99364.00
2022-11-26T22:02:43.455Z,99360.00
2022-11-26T22:05:18.296Z,99365.00
2022-11-26T22:07:53.274Z,99361.00
2022-11-26T22:10:32.019Z,99370.00
2022-11-26T22:13:10.793Z,99376.00
2022-11-26T22:15:46.101Z,99379.00
2022-11-26T22:18:21.014Z,99376.00
2022-11-26T22:20:55.861Z,99381.00
2022-11-26T22:23:30.728Z,99379.00
2022-11-26T22:26:06.044Z,99381.00
2022-11-26T22:28:41.425Z,99366.00
2022-11-26T22:31:29.158Z,99363.00
2022-11-26T22:34:16.958Z,99374.00
2022-11-26T22:36:51.905Z,99373.00
2022-11-26T22:39:26.760Z,99366.00
2022-11-26T22:42:01.793Z,99371.00
2022-11-26T22:44:36.630Z,99371.00
2022-11-26T22:47:11.460Z,99373.00
2022-11-26T22:49:48.060Z,99372.00
2022-11-26T22:52:22.882Z,99369.00
2022-11-26T22:54:57.701Z,99364.00
2022-11-26T22:57:32.512Z,99368.00
2022-11-26T23:00:43.290Z,99370.00
2022-11-26T23:03:20.523Z,99373.00
2022-11-26T23:05:55.842Z,99372.00
2022-11-26T23:08:31.065Z,99378.00
2022-11-26T23:11:25.461Z,99364.00
2022-11-26T23:14:02.014Z,99367.00
2022-11-26T23:16:40.279Z,99367.00
2022-11-26T23:19:16.799Z,99361.00
2022-11-26T23:21:51.701Z,99350.00
2022-11-26T23:24:28.833Z,99358.00
2022-11-26T23:27:03.707Z,99348.00
2022-11-26T23:29:38.855Z,99344.00
2022-11-26T23:32:13.872Z,99336.00
2022-11-26T23:34:48.722Z,99336.00
2022-11-26T23:37:23.908Z,99329.00
2022-11-26T23:39:58.756Z,99333.00
2022-11-26T23:42:33.582Z,99315.00
2022-11-26T23:45:09.326Z,99310.00
2022-11-26T23:47:44.234Z,99300.00
2022-11-26T23:50:19.221Z,99298.00
2022-11-26T23:52:54.041Z,99306.00
2022-11-26T23:55:28.879Z,99296.00
2022-11-26T23:58:03.702Z,99289.00
